^^
Saratoga-Weather Station Historical Data
Daily Summary for July 30, 2021 Units:  Metric    English   Both
Daily Weekly Monthly Yearly Custom
  High: Low: Average:
Temperature: 6.1 °C 1.7 °C 3.8 °C
Dew Point: 5.2 °C 0.5 °C 2.8 °C
Humidity: 95% 89% 93%
Wind Speed: 24.1km/h 0km/h 7.1km/h
Wind Gust: 30.6km/h - -
Wind- - West
Pressure: 1016.9 hPa 1011.2 hPa -
Precipitation: 5.6 mm    
Historical Graphs
 
 
Tabular Data for July 30, 2021
Time Temperature Dew Point Pressure Wind Wind Speed Wind Gust Humidity Rainfall Rate (Hourly) solar
00:04 2.7 °C 1.4 °C 1016.6 hPa WSW 3.2 km/h 16.1 km/h 91% 0.0 mm 0 W/m2
00:09 2.7 °C 1.4 °C 1016.6 hPa West 9.7 km/h 12.9 km/h 91% 0.0 mm 0 W/m2
00:14 2.7 °C 1.4 °C 1016.6 hPa West 4.7 km/h 14.5 km/h 91% 0.0 mm 0 W/m2
00:19 2.7 °C 1.4 °C 1016.6 hPa West 9.7 km/h 14.5 km/h 91% 0.0 mm 0 W/m2
00:24 2.7 °C 1.4 °C 1016.9 hPa WSW 13 km/h 17.7 km/h 91% 0.0 mm 0 W/m2
00:29 2.7 °C 1.4 °C 1016.9 hPa WSW 7.9 km/h 9.7 km/h 91% 0.0 mm 0 W/m2
00:34 2.7 °C 1.4 °C 1016.6 hPa WNW 6.4 km/h 9.7 km/h 91% 0.0 mm 0 W/m2
00:39 2.7 °C 1.4 °C 1016.6 hPa WNW 4.7 km/h 14.5 km/h 91% 0.0 mm 0 W/m2
00:44 2.7 °C 1.4 °C 1016.9 hPa WSW 9.7 km/h 19.3 km/h 91% 0.0 mm 0 W/m2
00:49 2.7 °C 1.4 °C 1016.6 hPa WSW 6.4 km/h 12.9 km/h 91% 0.0 mm 0 W/m2
00:54 2.6 °C 1.3 °C 1016.6 hPa West 4.7 km/h 12.9 km/h 91% 0.0 mm 0 W/m2
00:59 2.6 °C 1.3 °C 1016.6 hPa NW 4.7 km/h 8 km/h 91% 0.0 mm 0 W/m2
01:04 2.6 °C 1.3 °C 1016.9 hPa WNW 3.2 km/h 9.7 km/h 91% 0.0 mm 0 W/m2
01:09 2.6 °C 1.3 °C 1016.6 hPa WSW 1.4 km/h 16.1 km/h 91% 0.0 mm 0 W/m2
01:14 2.6 °C 1.3 °C 1016.9 hPa SW 4.7 km/h 8 km/h 91% 0.0 mm 0 W/m2
01:19 2.5 °C 1.2 °C 1016.9 hPa Calm   11.3 km/h 91% 0.0 mm 0 W/m2
01:24 2.5 °C 1.2 °C 1016.9 hPa WNW 1.4 km/h 6.4 km/h 91% 0.0 mm 0 W/m2
01:34 2.4 °C 1.1 °C 1016.9 hPa WNW 6.4 km/h 12.9 km/h 91% 0.0 mm 0 W/m2
01:39 2.3 °C 1 °C 1016.6 hPa West 6.4 km/h 9.7 km/h 91% 0.0 mm 0 W/m2
01:44 2.3 °C 1 °C 1016.6 hPa West 1.4 km/h 12.9 km/h 91% 0.0 mm 0 W/m2
01:49 2.3 °C 1 °C 1016.6 hPa WNW 4.7 km/h 17.7 km/h 91% 0.0 mm 0 W/m2
01:54 2.3 °C 1 °C 1016.6 hPa WNW 3.2 km/h 6.4 km/h 91% 0.0 mm 0 W/m2
01:59 2.3 °C 1 °C 1016.6 hPa WSW 1.4 km/h 4.8 km/h 91% 0.0 mm 0 W/m2
02:04 2.3 °C 1 °C 1016.6 hPa WNW 4.7 km/h 17.7 km/h 91% 0.0 mm 0 W/m2
02:10 2.3 °C 1 °C 1016.6 hPa West 4.7 km/h 16.1 km/h 91% 0.0 mm 0 W/m2
02:15 2.3 °C 1 °C 1016.6 hPa Calm   12.9 km/h 91% 0.0 mm 0 W/m2
02:20 2.3 °C 1 °C 1016.6 hPa West 6.4 km/h 16.1 km/h 91% 0.0 mm 0 W/m2
02:25 2.3 °C 1 °C 1016.6 hPa NW 3.2 km/h 6.4 km/h 91% 0.0 mm 0 W/m2
02:30 2.3 °C 1 °C 1016.6 hPa WNW 3.2 km/h 16.1 km/h 91% 0.0 mm 0 W/m2
02:35 2.3 °C 1 °C 1016.6 hPa WSW 1.4 km/h 6.4 km/h 91% 0.0 mm 0 W/m2
02:40 2.3 °C 1 °C 1016.6 hPa SSW 9.7 km/h 16.1 km/h 91% 0.0 mm 0 W/m2
02:45 2.3 °C 1 °C 1016.3 hPa Calm   4.8 km/h 91% 0.0 mm 0 W/m2
02:50 2.3 °C 1 °C 1016.6 hPa WNW 3.2 km/h 11.3 km/h 91% 0.0 mm 0 W/m2
02:55 2.4 °C 1.1 °C 1016.6 hPa WSW 9.7 km/h 19.3 km/h 91% 0.0 mm 0 W/m2
03:00 2.4 °C 1.1 °C 1016.3 hPa Calm   8 km/h 91% 0.0 mm 0 W/m2
03:05 2.3 °C 1 °C 1016.3 hPa Calm   19.3 km/h 91% 0.0 mm 0 W/m2
03:10 2.3 °C 1 °C 1016.3 hPa Calm   6.4 km/h 91% 0.0 mm 0 W/m2
03:15 2.3 °C 1 °C 1016.3 hPa WNW 4.7 km/h 12.9 km/h 91% 0.0 mm 0 W/m2
03:20 2.3 °C 1 °C 1016.3 hPa SW 4.7 km/h 9.7 km/h 91% 0.0 mm 0 W/m2
03:25 2.3 °C 1 °C 1016.3 hPa WNW 1.4 km/h 4.8 km/h 91% 0.0 mm 0 W/m2
03:30 2.3 °C 1 °C 1016.3 hPa West 3.2 km/h 8 km/h 91% 0.0 mm 0 W/m2
03:35 2.3 °C 1 °C 1016.3 hPa NNW 4.7 km/h 8 km/h 91% 0.0 mm 0 W/m2
03:40 2.3 °C 1 °C 1015.9 hPa WSW 7.9 km/h 9.7 km/h 91% 0.0 mm 0 W/m2
03:45 2.3 °C 1 °C 1015.9 hPa WNW 1.4 km/h 3.2 km/h 91% 0.0 mm 0 W/m2
03:50 2.3 °C 1 °C 1015.9 hPa NNW 1.4 km/h 8 km/h 91% 0.0 mm 0 W/m2
03:55 2.4 °C 0.9 °C 1015.9 hPa NNW 7.9 km/h 8 km/h 90% 0.0 mm 0 W/m2
04:00 2.4 °C 0.9 °C 1015.6 hPa South 3.2 km/h 9.7 km/h 90% 0.0 mm 0 W/m2
04:05 2.4 °C 0.9 °C 1015.6 hPa Calm   3.2 km/h 90% 0.0 mm 0 W/m2
04:10 2.4 °C 0.9 °C 1015.6 hPa Calm   6.4 km/h 90% 0.0 mm 0 W/m2
04:15 2.5 °C 1 °C 1015.9 hPa WSW 6.4 km/h 9.7 km/h 90% 0.0 mm 0 W/m2
04:20 2.5 °C 1 °C 1015.9 hPa WNW 3.2 km/h 11.3 km/h 90% 0.0 mm 0 W/m2
04:25 2.6 °C 1.1 °C 1015.9 hPa West 9.7 km/h 16.1 km/h 90% 0.0 mm 0 W/m2
04:30 2.6 °C 1 °C 1015.9 hPa Calm   11.3 km/h 89% 0.0 mm 0 W/m2
04:35 2.6 °C 1 °C 1015.6 hPa WSW 3.2 km/h 16.1 km/h 89% 0.0 mm 0 W/m2
04:40 2.6 °C 1 °C 1015.2 hPa Calm   3.2 km/h 89% 0.0 mm 0 W/m2
04:45 2.7 °C 1.1 °C 1015.2 hPa NNW 4.7 km/h 6.4 km/h 89% 0.0 mm 0 W/m2
04:50 2.7 °C 1.1 °C 1015.2 hPa Calm   14.5 km/h 89% 0.0 mm 0 W/m2
04:55 2.6 °C 1.1 °C 1015.2 hPa WSW 1.4 km/h 9.7 km/h 90% 0.0 mm 0 W/m2
05:00 2.6 °C 1.1 °C 1015.2 hPa Calm   9.7 km/h 90% 0.0 mm 0 W/m2
05:05 2.5 °C 1 °C 1015.2 hPa WNW 4.7 km/h 6.4 km/h 90% 0.0 mm 0 W/m2
05:10 2.4 °C 1.1 °C 1015.2 hPa NW 3.2 km/h 8 km/h 91% 0.0 mm 0 W/m2
05:20 2.4 °C 1.1 °C 1015.6 hPa NW 3.2 km/h 8 km/h 91% 0.0 mm 0 W/m2
05:25 2.4 °C 1.1 °C 1015.2 hPa ENE 6.4 km/h 8 km/h 91% 0.0 mm 0 W/m2
05:30 2.4 °C 1.1 °C 1015.2 hPa WSW 4.7 km/h 4.8 km/h 91% 0.0 mm 0 W/m2
05:35 2.3 °C 1 °C 1015.2 hPa NW 4.7 km/h 9.7 km/h 91% 0.2 mm 0 W/m2
05:40 2.3 °C 1 °C 1015.2 hPa NNW 6.4 km/h 8 km/h 91% 0.2 mm 0 W/m2
05:45 2.1 °C 0.8 °C 1015.2 hPa North 3.2 km/h 17.7 km/h 91% 0.2 mm 0 W/m2
05:50 2.1 °C 0.8 °C 1014.9 hPa WNW 4.7 km/h 6.4 km/h 91% 0.5 mm 0 W/m2
05:55 2 °C 0.8 °C 1014.9 hPa Calm   12.9 km/h 92% 0.5 mm 0 W/m2
06:00 1.9 °C 0.7 °C 1014.9 hPa ENE 4.7 km/h 6.4 km/h 92% 0.5 mm 0 W/m2
06:05 1.8 °C 0.6 °C 1014.6 hPa Calm   6.4 km/h 92% 0.5 mm 0 W/m2
06:10 1.8 °C 0.6 °C 1014.6 hPa East 4.7 km/h 14.5 km/h 92% 0.5 mm 0 W/m2
06:15 1.7 °C 0.5 °C 1014.6 hPa SSW 3.2 km/h 6.4 km/h 92% 0.8 mm 0 W/m2
06:20 1.7 °C 0.5 °C 1014.6 hPa WNW 1.4 km/h 4.8 km/h 92% 0.8 mm 0 W/m2
06:30 1.7 °C 0.7 °C 1014.2 hPa WSW 6.4 km/h 14.5 km/h 93% 1.3 mm 0 W/m2
06:35 1.7 °C 0.7 °C 1014.2 hPa WNW 11.1 km/h 12.9 km/h 93% 1.0 mm 0 W/m2
06:40 1.8 °C 0.8 °C 1014.2 hPa NNW 3.2 km/h 9.7 km/h 93% 1.3 mm 0 W/m2
06:45 1.8 °C 0.8 °C 1014.2 hPa NNW 3.2 km/h 12.9 km/h 93% 1.5 mm 0 W/m2
06:50 1.8 °C 0.9 °C 1014.2 hPa NNW 4.7 km/h 11.3 km/h 94% 1.5 mm 0 W/m2
06:55 1.8 °C 0.9 °C 1014.2 hPa SW 7.9 km/h 20.9 km/h 94% 1.5 mm 0 W/m2
07:00 1.9 °C 1 °C 1014.2 hPa NE 4.7 km/h 11.3 km/h 94% 1.8 mm 0 W/m2
07:05 1.9 °C 1 °C 1014.2 hPa NNW 6.4 km/h 11.3 km/h 94% 1.8 mm 0 W/m2
07:10 2 °C 1.1 °C 1014.2 hPa WNW 3.2 km/h 9.7 km/h 94% 1.8 mm 0 W/m2
07:15 2.1 °C 1.2 °C 1014.2 hPa WSW 7.9 km/h 19.3 km/h 94% 1.8 mm 0 W/m2
07:20 2.2 °C 1.3 °C 1014.2 hPa West 9.7 km/h 19.3 km/h 94% 1.8 mm 0 W/m2
07:25 2.3 °C 1.4 °C 1014.2 hPa WSW 6.4 km/h 17.7 km/h 94% 1.5 mm 0 W/m2
07:30 2.4 °C 1.5 °C 1013.9 hPa ENE 4.7 km/h 16.1 km/h 94% 1.5 mm 0 W/m2
07:35 2.4 °C 1.5 °C 1013.9 hPa NW 4.7 km/h 11.3 km/h 94% 1.5 mm 0 W/m2
07:40 2.5 °C 1.6 °C 1013.9 hPa WNW 4.7 km/h 27.4 km/h 94% 1.5 mm 0 W/m2
07:45 2.6 °C 1.7 °C 1013.9 hPa NW 4.7 km/h 11.3 km/h 94% 1.5 mm 0 W/m2
07:50 2.6 °C 1.7 °C 1013.5 hPa WNW 6.4 km/h 27.4 km/h 94% 1.3 mm 0 W/m2
07:55 2.6 °C 1.7 °C 1013.9 hPa WNW 7.9 km/h 16.1 km/h 94% 1.3 mm 0 W/m2
08:00 2.7 °C 1.8 °C 1014.2 hPa WSW 11.1 km/h 19.3 km/h 94% 1.0 mm 0 W/m2
08:05 2.7 °C 1.8 °C 1014.2 hPa West 6.4 km/h 16.1 km/h 94% 0.8 mm 0 W/m2
08:10 2.8 °C 1.9 °C 1014.2 hPa WNW 6.4 km/h 20.9 km/h 94% 0.8 mm 0 W/m2
08:20 2.8 °C 1.9 °C 1014.2 hPa SSW 1.4 km/h 17.7 km/h 94% 0.8 mm 0 W/m2
08:30 2.9 °C 2 °C 1014.6 hPa West 17.7 km/h 22.5 km/h 94% 0.5 mm 0 W/m2
08:35 2.9 °C 2 °C 1014.2 hPa WSW 14.3 km/h 17.7 km/h 94% 0.5 mm 0 W/m2
08:40 2.9 °C 2 °C 1014.2 hPa WNW 7.9 km/h 16.1 km/h 94% 0.5 mm 5 W/m2
08:45 2.9 °C 2 °C 1014.6 hPa SW 7.9 km/h 22.5 km/h 94% 0.5 mm 5 W/m2
08:50 2.9 °C 2 °C 1014.2 hPa SW 6.4 km/h 16.1 km/h 94% 0.5 mm 5 W/m2
08:55 2.9 °C 2 °C 1014.2 hPa West 9.7 km/h 17.7 km/h 94% 0.2 mm 7 W/m2
09:00 2.9 °C 2 °C 1014.2 hPa West 4.7 km/h 16.1 km/h 94% 0.2 mm 11 W/m2
09:05 3 °C 2.1 °C 1014.2 hPa WNW 13 km/h 17.7 km/h 94% 0.5 mm 12 W/m2
09:10 3 °C 2.1 °C 1014.2 hPa NNW 9.7 km/h 17.7 km/h 94% 0.5 mm 16 W/m2
09:15 3.1 °C 2.2 °C 1014.2 hPa NW 9.7 km/h 12.9 km/h 94% 0.5 mm 18 W/m2
09:20 3.1 °C 2.2 °C 1014.2 hPa WSW 9.7 km/h 25.7 km/h 94% 0.2 mm 21 W/m2
09:25 3.1 °C 2.2 °C 1014.2 hPa West 16.3 km/h 29 km/h 94% 0.2 mm 25 W/m2
09:30 3.2 °C 2.3 °C 1014.2 hPa WNW 7.9 km/h 14.5 km/h 94% 0.2 mm 25 W/m2
09:35 3.2 °C 2.3 °C 1014.2 hPa WNW 14.3 km/h 29 km/h 94% 0.5 mm 25 W/m2
09:40 3.2 °C 2.3 °C 1014.2 hPa NW 9.7 km/h 20.9 km/h 94% 0.5 mm 30 W/m2
09:45 3.2 °C 2.3 °C 1013.9 hPa WNW 6.4 km/h 11.3 km/h 94% 0.5 mm 23 W/m2
09:50 3.3 °C 2.4 °C 1013.9 hPa WSW 6.4 km/h 20.9 km/h 94% 0.5 mm 30 W/m2
09:55 3.3 °C 2.4 °C 1014.2 hPa WSW 24.1 km/h 24.1 km/h 94% 0.5 mm 39 W/m2
10:01 3.3 °C 2.4 °C 1013.9 hPa West 6.4 km/h 22.5 km/h 94% 0.5 mm 35 W/m2
10:06 3.3 °C 2.4 °C 1013.9 hPa WSW 4.7 km/h 24.1 km/h 94% 0.5 mm 30 W/m2
10:11 3.3 °C 2.4 °C 1013.9 hPa WNW 17.7 km/h 22.5 km/h 94% 0.5 mm 26 W/m2
10:16 3.3 °C 2.4 °C 1013.9 hPa WSW 7.9 km/h 16.1 km/h 94% 0.5 mm 25 W/m2
10:21 3.3 °C 2.4 °C 1013.9 hPa West 3.2 km/h 17.7 km/h 94% 0.5 mm 30 W/m2
10:26 3.3 °C 2.4 °C 1014.2 hPa NW 4.7 km/h 19.3 km/h 94% 0.5 mm 39 W/m2
10:31 3.3 °C 2.4 °C 1013.9 hPa WNW 11.1 km/h 17.7 km/h 94% 0.5 mm 46 W/m2
10:36 3.3 °C 2.4 °C 1014.2 hPa West 6.4 km/h 16.1 km/h 94% 0.5 mm 40 W/m2
10:41 3.3 °C 2.4 °C 1013.9 hPa NNW 13 km/h 17.7 km/h 94% 0.5 mm 32 W/m2
10:46 3.3 °C 2.4 °C 1013.9 hPa NW 6.4 km/h 17.7 km/h 94% 0.2 mm 35 W/m2
10:51 3.3 °C 2.4 °C 1013.9 hPa WSW 6.4 km/h 16.1 km/h 94% 0.2 mm 39 W/m2
10:56 3.3 °C 2.4 °C 1013.9 hPa WNW 6.4 km/h 6.4 km/h 94% 0.2 mm 32 W/m2
11:01 3.3 °C 2.4 °C 1013.9 hPa NW 3.2 km/h 12.9 km/h 94% 0.5 mm 28 W/m2
11:06 3.3 °C 2.4 °C 1013.5 hPa West 13 km/h 16.1 km/h 94% 0.5 mm 33 W/m2
11:11 3.3 °C 2.4 °C 1013.5 hPa NNW 6.4 km/h 16.1 km/h 94% 0.2 mm 54 W/m2
11:16 3.3 °C 2.4 °C 1013.2 hPa West 11.1 km/h 19.3 km/h 94% 0.2 mm 58 W/m2
11:21 3.3 °C 2.4 °C 1013.5 hPa SW 6.4 km/h 25.7 km/h 94% 0.2 mm 42 W/m2
11:26 3.3 °C 2.4 °C 1013.5 hPa SSW 3.2 km/h 19.3 km/h 94% 0.2 mm 53 W/m2
11:31 3.3 °C 2.4 °C 1013.5 hPa WNW 11.1 km/h 25.7 km/h 94% 0.5 mm 53 W/m2
11:36 3.3 °C 2.4 °C 1013.2 hPa West 9.7 km/h 17.7 km/h 94% 0.5 mm 35 W/m2
11:41 3.3 °C 2.4 °C 1013.2 hPa WNW 13 km/h 25.7 km/h 94% 0.5 mm 40 W/m2
11:46 3.3 °C 2.4 °C 1013.2 hPa WNW 11.1 km/h 14.5 km/h 94% 0.5 mm 49 W/m2
11:51 3.3 °C 2.4 °C 1013.2 hPa WSW 6.4 km/h 19.3 km/h 94% 0.5 mm 60 W/m2
11:56 3.3 °C 2.4 °C 1013.2 hPa WNW 6.4 km/h 20.9 km/h 94% 0.5 mm 53 W/m2
12:01 3.4 °C 2.5 °C 1013.5 hPa NW 13 km/h 17.7 km/h 94% 0.2 mm 42 W/m2
12:06 3.4 °C 2.5 °C 1013.5 hPa West 13 km/h 17.7 km/h 94% 0.2 mm 35 W/m2
12:11 3.4 °C 2.5 °C 1013.2 hPa WNW 7.9 km/h 22.5 km/h 94% 0.2 mm 42 W/m2
12:16 3.4 °C 2.5 °C 1013.2 hPa WNW 13 km/h 12.9 km/h 94% 0.2 mm 39 W/m2
12:21 3.4 °C 2.5 °C 1013.2 hPa West 3.2 km/h 14.5 km/h 94% 0.2 mm 35 W/m2
12:26 3.5 °C 2.6 °C 1013.2 hPa NNE 6.4 km/h 19.3 km/h 94% 0.2 mm 30 W/m2
12:31 3.5 °C 2.6 °C 1013.2 hPa West 9.7 km/h 12.9 km/h 94% 0.0 mm 30 W/m2
12:36 3.5 °C 2.6 °C 1013.2 hPa SSW 6.4 km/h 16.1 km/h 94% 0.0 mm 32 W/m2
12:41 3.5 °C 2.6 °C 1013.2 hPa Calm   24.1 km/h 94% 0.0 mm 37 W/m2
12:46 3.6 °C 2.7 °C 1013.2 hPa WNW 16.3 km/h 16.1 km/h 94% 0.0 mm 35 W/m2
12:51 3.6 °C 2.7 °C 1013.2 hPa West 14.3 km/h 20.9 km/h 94% 0.0 mm 37 W/m2
12:56 3.6 °C 2.7 °C 1013.2 hPa West 6.4 km/h 22.5 km/h 94% 0.2 mm 35 W/m2
13:01 3.6 °C 2.7 °C 1013.2 hPa WNW 11.1 km/h 19.3 km/h 94% 0.2 mm 39 W/m2
13:06 3.7 °C 2.8 °C 1013.2 hPa WSW 7.9 km/h 30.6 km/h 94% 0.2 mm 42 W/m2
13:11 3.7 °C 2.8 °C 1013.2 hPa WNW 11.1 km/h 17.7 km/h 94% 0.2 mm 35 W/m2
13:16 3.7 °C 2.8 °C 1013.2 hPa West 11.1 km/h 19.3 km/h 94% 0.2 mm 39 W/m2
13:21 3.7 °C 2.8 °C 1013.2 hPa NW 16.3 km/h 17.7 km/h 94% 0.2 mm 35 W/m2
13:31 3.7 °C 2.8 °C 1013.2 hPa NW 13 km/h 27.4 km/h 94% 0.2 mm 35 W/m2
13:36 3.7 °C 2.8 °C 1013.2 hPa NNW 14.3 km/h 16.1 km/h 94% 0.2 mm 32 W/m2
13:41 3.7 °C 2.8 °C 1013.2 hPa WSW 7.9 km/h 25.7 km/h 94% 0.2 mm 33 W/m2
13:46 3.8 °C 2.9 °C 1013.2 hPa WNW 3.2 km/h 12.9 km/h 94% 0.2 mm 32 W/m2
13:51 3.8 °C 2.9 °C 1013.2 hPa West 11.1 km/h 25.7 km/h 94% 0.2 mm 26 W/m2
13:56 3.8 °C 2.9 °C 1013.2 hPa NW 13 km/h 24.1 km/h 94% 0.0 mm 30 W/m2
14:01 3.8 °C 2.9 °C 1013.2 hPa WSW 4.7 km/h 25.7 km/h 94% 0.0 mm 28 W/m2
14:06 3.9 °C 3 °C 1013.2 hPa WSW 13 km/h 20.9 km/h 94% 0.0 mm 26 W/m2
14:11 3.9 °C 3 °C 1013.2 hPa WSW 7.9 km/h 14.5 km/h 94% 0.0 mm 33 W/m2
14:16 3.9 °C 3 °C 1013.2 hPa WNW 13 km/h 20.9 km/h 94% 0.0 mm 28 W/m2
14:21 3.9 °C 3 °C 1012.9 hPa WNW 20.9 km/h 25.7 km/h 94% 0.0 mm 26 W/m2
14:26 3.9 °C 3 °C 1012.9 hPa WNW 22.7 km/h 24.1 km/h 94% 0.0 mm 26 W/m2
14:31 3.9 °C 3 °C 1012.9 hPa NNE 3.2 km/h 6.4 km/h 94% 0.0 mm 23 W/m2
14:41 4.1 °C 3.4 °C 1012.9 hPa Calm   16.1 km/h 95% 0.0 mm 25 W/m2
14:46 4.1 °C 3.4 °C 1013.2 hPa NW 7.9 km/h 22.5 km/h 95% 0.0 mm 23 W/m2
14:51 4.2 °C 3.5 °C 1012.9 hPa WNW 7.9 km/h 12.9 km/h 95% 0.0 mm 21 W/m2
15:06 4.2 °C 3.5 °C 1012.9 hPa SW 3.2 km/h 12.9 km/h 95% 0.0 mm 28 W/m2
15:11 4.2 °C 3.5 °C 1012.9 hPa NNW 6.4 km/h 17.7 km/h 95% 0.0 mm 21 W/m2
15:16 4.3 °C 3.6 °C 1012.9 hPa West 4.7 km/h 22.5 km/h 95% 0.0 mm 16 W/m2
15:21 4.3 °C 3.6 °C 1012.9 hPa West 17.7 km/h 17.7 km/h 95% 0.0 mm 16 W/m2
15:26 4.3 °C 3.6 °C 1012.9 hPa West 6.4 km/h 25.7 km/h 95% 0.0 mm 18 W/m2
15:31 4.3 °C 3.6 °C 1012.9 hPa SW 1.4 km/h 17.7 km/h 95% 0.0 mm 18 W/m2
15:36 4.4 °C 3.7 °C 1012.9 hPa NNW 13 km/h 24.1 km/h 95% 0.0 mm 14 W/m2
15:41 4.4 °C 3.7 °C 1013.2 hPa West 4.7 km/h 11.3 km/h 95% 0.0 mm 12 W/m2
15:46 4.5 °C 3.8 °C 1013.2 hPa WNW 13 km/h 19.3 km/h 95% 0.0 mm 14 W/m2
15:51 4.5 °C 3.8 °C 1012.9 hPa NW 17.7 km/h 24.1 km/h 95% 0.0 mm 19 W/m2
15:56 4.6 °C 3.9 °C 1012.9 hPa NNW 7.9 km/h 12.9 km/h 95% 0.0 mm 23 W/m2
16:01 4.6 °C 3.9 °C 1012.9 hPa SW 6.4 km/h 24.1 km/h 95% 0.2 mm 21 W/m2
16:06 4.6 °C 3.9 °C 1012.9 hPa WNW 3.2 km/h 14.5 km/h 95% 0.2 mm 23 W/m2
16:11 4.6 °C 3.9 °C 1012.9 hPa West 4.7 km/h 19.3 km/h 95% 0.2 mm 18 W/m2
16:16 4.6 °C 3.9 °C 1012.9 hPa West 9.7 km/h 24.1 km/h 95% 0.2 mm 12 W/m2
16:21 4.7 °C 4 °C 1012.9 hPa NW 7.9 km/h 22.5 km/h 95% 0.2 mm 9 W/m2
16:26 4.7 °C 4 °C 1012.9 hPa NW 17.7 km/h 24.1 km/h 95% 0.2 mm 11 W/m2
16:31 4.7 °C 4 °C 1012.9 hPa WNW 4.7 km/h 16.1 km/h 95% 0.2 mm 7 W/m2
16:36 4.7 °C 4 °C 1012.9 hPa NW 16.3 km/h 16.1 km/h 95% 0.2 mm 0 W/m2
16:41 4.8 °C 4.1 °C 1012.9 hPa West 9.7 km/h 12.9 km/h 95% 0.2 mm 0 W/m2
16:46 4.8 °C 4.1 °C 1012.9 hPa WNW 13 km/h 14.5 km/h 95% 0.2 mm 0 W/m2
16:51 4.8 °C 4.1 °C 1013.2 hPa WNW 16.3 km/h 20.9 km/h 95% 0.2 mm 0 W/m2
16:56 4.8 °C 4.1 °C 1012.9 hPa SW 7.9 km/h 14.5 km/h 95% 0.2 mm 0 W/m2
17:01 4.8 °C 4.1 °C 1012.9 hPa WNW 16.3 km/h 22.5 km/h 95% 0.2 mm 0 W/m2
17:06 4.9 °C 4.2 °C 1012.9 hPa North 19.5 km/h 22.5 km/h 95% 0.2 mm 0 W/m2
17:11 4.9 °C 4.2 °C 1013.2 hPa NW 6.4 km/h 20.9 km/h 95% 0.2 mm 0 W/m2
17:16 4.9 °C 4.2 °C 1012.9 hPa NW 7.9 km/h 22.5 km/h 95% 0.2 mm 0 W/m2
17:21 4.9 °C 4.2 °C 1013.2 hPa NW 7.9 km/h 17.7 km/h 95% 0.2 mm 0 W/m2
17:26 5 °C 4.3 °C 1012.9 hPa NW 16.3 km/h 16.1 km/h 95% 0.2 mm 0 W/m2
17:32 5.1 °C 4.4 °C 1013.2 hPa West 6.4 km/h 19.3 km/h 95% 0.2 mm 0 W/m2
17:37 5.1 °C 4.4 °C 1012.9 hPa NNW 1.4 km/h 20.9 km/h 95% 0.2 mm 0 W/m2
17:42 5.1 °C 4.4 °C 1012.9 hPa SW 4.7 km/h 22.5 km/h 95% 0.2 mm 0 W/m2
17:47 5.1 °C 4.4 °C 1012.9 hPa NW 9.7 km/h 24.1 km/h 95% 0.2 mm 0 W/m2
17:52 5.2 °C 4.5 °C 1012.5 hPa North 13 km/h 16.1 km/h 95% 0.2 mm 0 W/m2
17:57 5.2 °C 4.5 °C 1012.9 hPa WNW 6.4 km/h 14.5 km/h 95% 0.2 mm 0 W/m2
18:02 5.2 °C 4.5 °C 1012.5 hPa NW 13 km/h 19.3 km/h 95% 0.0 mm 0 W/m2
18:07 5.3 °C 4.6 °C 1012.5 hPa West 6.4 km/h 17.7 km/h 95% 0.2 mm 0 W/m2
18:12 5.3 °C 4.6 °C 1012.5 hPa WNW 14.3 km/h 22.5 km/h 95% 0.2 mm 0 W/m2
18:17 5.3 °C 4.6 °C 1012.5 hPa WNW 4.7 km/h 17.7 km/h 95% 0.2 mm 0 W/m2
18:22 5.3 °C 4.6 °C 1012.5 hPa West 4.7 km/h 16.1 km/h 95% 0.2 mm 0 W/m2
18:27 5.4 °C 4.7 °C 1012.5 hPa NW 3.2 km/h 16.1 km/h 95% 0.2 mm 0 W/m2
18:32 5.4 °C 4.7 °C 1012.5 hPa SW 6.4 km/h 25.7 km/h 95% 0.2 mm 0 W/m2
18:37 5.4 °C 4.7 °C 1012.5 hPa NNW 9.7 km/h 14.5 km/h 95% 0.2 mm 0 W/m2
18:42 5.4 °C 4.7 °C 1012.5 hPa WNW 6.4 km/h 25.7 km/h 95% 0.2 mm 0 W/m2
18:47 5.4 °C 4.7 °C 1012.5 hPa WNW 3.2 km/h 6.4 km/h 95% 0.2 mm 0 W/m2
18:52 5.4 °C 4.7 °C 1012.5 hPa West 4.7 km/h 16.1 km/h 95% 0.2 mm 0 W/m2
18:57 5.4 °C 4.7 °C 1012.9 hPa WNW 6.4 km/h 11.3 km/h 95% 0.2 mm 0 W/m2
19:02 5.4 °C 4.7 °C 1012.9 hPa West 9.7 km/h 24.1 km/h 95% 0.2 mm 0 W/m2
19:07 5.4 °C 4.7 °C 1012.5 hPa WNW 6.4 km/h 14.5 km/h 95% 0.0 mm 0 W/m2
19:12 5.4 °C 4.7 °C 1012.5 hPa NNW 6.4 km/h 17.7 km/h 95% 0.0 mm 0 W/m2
19:17 5.4 °C 4.7 °C 1012.5 hPa West 3.2 km/h 16.1 km/h 95% 0.0 mm 0 W/m2
19:22 5.4 °C 4.7 °C 1012.5 hPa West 4.7 km/h 14.5 km/h 95% 0.0 mm 0 W/m2
19:27 5.4 °C 4.7 °C 1012.9 hPa West 9.7 km/h 20.9 km/h 95% 0.0 mm 0 W/m2
19:32 5.5 °C 4.8 °C 1012.5 hPa NW 6.4 km/h 14.5 km/h 95% 0.0 mm 0 W/m2
19:37 5.5 °C 4.8 °C 1012.5 hPa South 3.2 km/h 20.9 km/h 95% 0.0 mm 0 W/m2
19:42 5.5 °C 4.8 °C 1012.5 hPa Calm   11.3 km/h 95% 0.0 mm 0 W/m2
19:47 5.5 °C 4.8 °C 1012.5 hPa WSW 4.7 km/h 20.9 km/h 95% 0.0 mm 0 W/m2
19:52 5.5 °C 4.8 °C 1012.5 hPa West 1.4 km/h 14.5 km/h 95% 0.0 mm 0 W/m2
19:57 5.6 °C 4.9 °C 1012.2 hPa NNW 6.4 km/h 20.9 km/h 95% 0.0 mm 0 W/m2
20:02 5.6 °C 4.9 °C 1012.5 hPa South 13 km/h 19.3 km/h 95% 0.0 mm 0 W/m2
20:07 5.6 °C 4.9 °C 1012.9 hPa West 9.7 km/h 20.9 km/h 95% 0.0 mm 0 W/m2
20:12 5.6 °C 4.9 °C 1012.9 hPa NW 3.2 km/h 12.9 km/h 95% 0.2 mm 0 W/m2
20:17 5.6 °C 4.9 °C 1012.5 hPa NW 1.4 km/h 12.9 km/h 95% 0.2 mm 0 W/m2
20:22 5.7 °C 5 °C 1012.5 hPa NE 3.2 km/h 14.5 km/h 95% 0.2 mm 0 W/m2
20:27 5.7 °C 5 °C 1012.5 hPa West 11.1 km/h 14.5 km/h 95% 0.2 mm 0 W/m2
20:32 5.7 °C 5 °C 1012.5 hPa NNW 6.4 km/h 19.3 km/h 95% 0.2 mm 0 W/m2
20:37 5.7 °C 5 °C 1012.5 hPa West 11.1 km/h 14.5 km/h 95% 0.2 mm 0 W/m2
20:42 5.7 °C 5 °C 1012.2 hPa NNE 4.7 km/h 19.3 km/h 95% 0.2 mm 0 W/m2
20:47 5.7 °C 5 °C 1012.2 hPa West 9.7 km/h 16.1 km/h 95% 0.2 mm 0 W/m2
20:52 5.7 °C 5 °C 1012.5 hPa WSW 9.7 km/h 16.1 km/h 95% 0.2 mm 0 W/m2
20:57 5.8 °C 4.9 °C 1012.5 hPa WSW 6.4 km/h 30.6 km/h 94% 0.2 mm 0 W/m2
21:02 5.8 °C 4.9 °C 1012.2 hPa WNW 13 km/h 12.9 km/h 94% 0.2 mm 0 W/m2
21:07 5.8 °C 4.9 °C 1012.2 hPa West 6.4 km/h 25.7 km/h 94% 0.2 mm 0 W/m2
21:12 5.8 °C 4.9 °C 1012.2 hPa NW 6.4 km/h 16.1 km/h 94% 0.0 mm 0 W/m2
21:17 5.8 °C 4.9 °C 1011.9 hPa WNW 4.7 km/h 14.5 km/h 94% 0.0 mm 0 W/m2
21:22 5.8 °C 4.9 °C 1012.2 hPa NNW 1.4 km/h 17.7 km/h 94% 0.0 mm 0 W/m2
21:27 5.8 °C 4.9 °C 1012.2 hPa WSW 7.9 km/h 12.9 km/h 94% 0.0 mm 0 W/m2
21:32 5.8 °C 4.9 °C 1012.2 hPa SW 1.4 km/h 14.5 km/h 94% 0.0 mm 0 W/m2
21:37 5.9 °C 5 °C 1012.2 hPa West 11.1 km/h 20.9 km/h 94% 0.0 mm 0 W/m2
21:42 5.9 °C 5 °C 1012.2 hPa ENE 1.4 km/h 14.5 km/h 94% 0.0 mm 0 W/m2
21:47 5.9 °C 5 °C 1012.2 hPa WSW 13 km/h 14.5 km/h 94% 0.0 mm 0 W/m2
21:52 5.9 °C 5 °C 1012.2 hPa WNW 7.9 km/h 20.9 km/h 94% 0.0 mm 0 W/m2
21:57 5.9 °C 5 °C 1012.2 hPa WNW 7.9 km/h 14.5 km/h 94% 0.0 mm 0 W/m2
22:02 6 °C 5.1 °C 1012.2 hPa NNW 13 km/h 20.9 km/h 94% 0.0 mm 0 W/m2
22:07 6 °C 5.1 °C 1012.2 hPa SSW 6.4 km/h 22.5 km/h 94% 0.0 mm 0 W/m2
22:12 6.1 °C 5.2 °C 1011.9 hPa NE 4.7 km/h 8 km/h 94% 0.0 mm 0 W/m2
22:17 6.1 °C 5.2 °C 1011.9 hPa South 19.5 km/h 20.9 km/h 94% 0.0 mm 0 W/m2
22:22 6.1 °C 5.2 °C 1011.9 hPa WNW 11.1 km/h 17.7 km/h 94% 0.0 mm 0 W/m2
22:27 6.1 °C 5.2 °C 1011.9 hPa NNE 7.9 km/h 29 km/h 94% 0.0 mm 0 W/m2
22:32 6.1 °C 5.2 °C 1011.9 hPa WSW 11.1 km/h 17.7 km/h 94% 0.0 mm 0 W/m2
22:37 6 °C 5.1 °C 1011.9 hPa NNW 1.4 km/h 11.3 km/h 94% 0.0 mm 0 W/m2
22:42 6 °C 5.1 °C 1012.2 hPa WSW 6.4 km/h 20.9 km/h 94% 0.0 mm 0 W/m2
22:47 5.9 °C 5 °C 1012.2 hPa NNW 7.9 km/h 9.7 km/h 94% 0.0 mm 0 W/m2
22:52 5.9 °C 5 °C 1011.9 hPa ENE 4.7 km/h 8 km/h 94% 0.0 mm 0 W/m2
22:57 5.8 °C 4.9 °C 1012.2 hPa West 9.7 km/h 22.5 km/h 94% 0.0 mm 0 W/m2
23:02 5.8 °C 4.9 °C 1011.9 hPa NNW 4.7 km/h 14.5 km/h 94% 0.0 mm 0 W/m2
23:07 5.8 °C 4.9 °C 1011.9 hPa South 3.2 km/h 22.5 km/h 94% 0.0 mm 0 W/m2
23:12 5.8 °C 4.9 °C 1011.9 hPa NNW 7.9 km/h 19.3 km/h 94% 0.0 mm 0 W/m2
23:17 5.8 °C 4.9 °C 1011.9 hPa NW 4.7 km/h 12.9 km/h 94% 0.0 mm 0 W/m2
23:22 5.8 °C 4.9 °C 1011.5 hPa WNW 4.7 km/h 19.3 km/h 94% 0.0 mm 0 W/m2
23:28 5.8 °C 4.9 °C 1011.5 hPa WSW 1.4 km/h 16.1 km/h 94% 0.0 mm 0 W/m2
23:33 5.8 °C 4.9 °C 1011.5 hPa NE 3.2 km/h 8 km/h 94% 0.0 mm 0 W/m2
23:38 5.8 °C 4.9 °C 1011.5 hPa WNW 14.3 km/h 14.5 km/h 94% 0.0 mm 0 W/m2
23:43 5.8 °C 4.9 °C 1011.2 hPa SSW 7.9 km/h 12.9 km/h 94% 0.0 mm 0 W/m2
23:48 5.8 °C 4.9 °C 1011.5 hPa NW 4.7 km/h 12.9 km/h 94% 0.0 mm 0 W/m2
23:53 5.8 °C 4.9 °C 1011.2 hPa NNW 13 km/h 14.5 km/h 94% 0.0 mm 0 W/m2
23:58 5.8 °C 4.9 °C 1011.2 hPa West 11.1 km/h 19.3 km/h 94% 0.0 mm 0 W/m2
Juneau County Weather
Compliments of Weather Underground - 4 mb